createdAt,value
2018-03-01T00:01:30.276Z,7.80
2018-03-01T00:03:59.162Z,9.23
2018-03-01T00:06:28.053Z,10.37
2018-03-01T00:08:56.737Z,8.57
2018-03-01T00:11:25.424Z,11.27
2018-03-01T00:13:54.110Z,9.67
2018-03-01T00:16:22.901Z,9.23
2018-03-01T00:18:51.687Z,10.50
2018-03-01T00:21:20.477Z,9.17
2018-03-01T00:23:49.240Z,10.13
2018-03-01T00:26:18.104Z,10.73
2018-03-01T00:28:47.917Z,9.40
2018-03-01T00:31:16.662Z,8.70
2018-03-01T00:33:46.176Z,12.40
2018-03-01T00:36:14.956Z,11.23
2018-03-01T00:38:43.638Z,11.40
2018-03-01T00:41:12.543Z,10.50
2018-03-01T00:43:41.319Z,10.27
2018-03-01T00:46:10.109Z,10.80
2018-03-01T00:48:38.792Z,10.40
2018-03-01T00:51:07.583Z,9.67
2018-03-01T00:53:36.274Z,10.73
2018-03-01T00:56:05.876Z,9.70
2018-03-01T00:58:34.766Z,9.10
2018-03-01T01:01:03.553Z,9.67
2018-03-01T01:03:32.236Z,8.87
2018-03-01T01:06:00.865Z,9.23
2018-03-01T01:08:29.761Z,8.90
2018-03-01T01:10:59.431Z,8.57
2018-03-01T01:13:28.316Z,9.07
2018-03-01T01:15:57.624Z,10.80
2018-03-01T01:18:26.516Z,8.73
2018-03-01T01:20:55.403Z,8.63
2018-03-01T01:23:24.086Z,8.70
2018-03-01T01:25:52.784Z,9.40
2018-03-01T01:28:22.284Z,8.67
2018-03-01T01:30:51.779Z,9.00
2018-03-01T01:33:20.474Z,9.03
2018-03-01T01:35:49.360Z,8.83
2018-03-01T01:38:18.475Z,8.20
2018-03-01T01:40:47.962Z,9.60
2018-03-01T01:43:17.048Z,9.07
2018-03-01T01:45:46.212Z,8.70
2018-03-01T01:48:15.357Z,8.40
2018-03-01T01:50:55.913Z,7.73
2018-03-01T01:53:24.702Z,6.83
2018-03-01T01:55:54.220Z,8.17
2018-03-01T01:58:23.203Z,8.13
2018-03-01T02:00:52.194Z,7.60
2018-03-01T02:03:21.329Z,7.00
2018-03-01T02:05:50.406Z,7.07
2018-03-01T02:08:19.275Z,6.93
2018-03-01T02:10:49.108Z,6.80
2018-03-01T02:13:18.225Z,6.40
2018-03-01T02:15:47.841Z,7.63
2018-03-01T02:18:17.066Z,7.13
2018-03-01T02:20:46.083Z,6.17
2018-03-01T02:23:14.870Z,6.00
2018-03-01T02:25:43.823Z,6.73
2018-03-01T02:28:12.558Z,6.13
2018-03-01T02:30:42.070Z,6.77
2018-03-01T02:33:11.373Z,5.43
2018-03-01T02:35:40.286Z,6.73
2018-03-01T02:38:09.762Z,7.07
2018-03-01T02:40:38.653Z,6.20
2018-03-01T02:43:08.084Z,6.77
2018-03-01T02:45:37.369Z,8.20
2018-03-01T02:48:06.384Z,7.13
2018-03-01T02:50:35.482Z,6.47
2018-03-01T02:53:04.409Z,6.70
2018-03-01T02:55:33.505Z,5.30
2018-03-01T02:58:02.318Z,6.63
2018-03-01T03:00:31.217Z,5.63
2018-03-01T03:03:00.013Z,7.50
2018-03-01T03:05:29.215Z,6.87
2018-03-01T03:07:57.982Z,5.70
2018-03-01T03:10:27.921Z,7.00
2018-03-01T03:12:57.610Z,5.63
2018-03-01T03:15:26.689Z,6.07
2018-03-01T03:17:55.751Z,7.30
2018-03-01T03:20:24.756Z,7.83
2018-03-01T03:22:53.487Z,7.00
2018-03-01T03:25:23.504Z,6.90
2018-03-01T03:27:52.399Z,6.80
2018-03-01T03:30:21.606Z,6.50
2018-03-01T03:32:51.505Z,5.97
2018-03-01T03:35:22.134Z,8.00
2018-03-01T03:37:51.076Z,7.20
2018-03-01T03:40:20.522Z,7.37
2018-03-01T03:42:49.625Z,7.10
2018-03-01T03:45:18.517Z,6.20
2018-03-01T03:47:47.481Z,7.47
2018-03-01T03:50:16.295Z,8.10
2018-03-01T03:52:45.098Z,7.10
2018-03-01T03:55:13.981Z,6.73
2018-03-01T03:57:43.072Z,6.83
2018-03-01T04:00:11.862Z,7.00
2018-03-01T04:02:40.578Z,5.70
2018-03-01T04:05:09.443Z,6.30
2018-03-01T04:07:38.332Z,5.97
2018-03-01T04:10:07.013Z,5.63
2018-03-01T04:12:35.654Z,6.97
2018-03-01T04:15:04.389Z,7.20
2018-03-01T04:17:34.812Z,7.17
2018-03-01T04:20:03.607Z,8.70
2018-03-01T04:22:32.400Z,7.33
2018-03-01T04:25:01.076Z,7.70
2018-03-01T04:27:29.762Z,7.23
2018-03-01T04:29:58.447Z,8.13
2018-03-01T04:32:27.139Z,7.67
2018-03-01T04:34:56.034Z,6.57
2018-03-01T04:37:24.920Z,7.13
2018-03-01T04:39:53.710Z,7.80
2018-03-01T04:42:22.394Z,7.37
2018-03-01T04:44:51.086Z,6.23
2018-03-01T04:47:19.937Z,7.43
2018-03-01T04:49:48.760Z,7.60
2018-03-01T04:52:17.446Z,6.47
2018-03-01T04:54:46.130Z,7.60
2018-03-01T04:57:15.024Z,6.83
2018-03-01T04:59:43.707Z,7.60
2018-03-01T05:02:12.335Z,6.43
2018-03-01T05:04:41.288Z,7.67
2018-03-01T05:07:09.868Z,7.00
2018-03-01T05:09:38.556Z,6.77
2018-03-01T05:12:07.446Z,9.37
2018-03-01T05:14:36.144Z,8.27
2018-03-01T05:17:05.756Z,7.73
2018-03-01T05:19:35.244Z,9.73
2018-03-01T05:22:04.134Z,8.37
2018-03-01T05:24:33.026Z,9.00
2018-03-01T05:27:01.920Z,9.10
2018-03-01T05:29:30.706Z,9.93
2018-03-01T05:32:00.211Z,9.63
2018-03-01T05:34:28.999Z,9.60
2018-03-01T05:36:58.447Z,9.73
2018-03-01T05:39:27.196Z,8.63
2018-03-01T05:41:56.083Z,10.27
2018-03-01T05:44:24.767Z,8.63
2018-03-01T05:46:53.556Z,9.37
2018-03-01T05:49:22.343Z,10.63
2018-03-01T05:51:51.179Z,9.40
2018-03-01T05:54:20.844Z,9.33
2018-03-01T05:56:49.631Z,9.70
2018-03-01T05:59:18.420Z,10.50
2018-03-01T06:01:47.212Z,10.47
2018-03-01T06:04:16.174Z,11.30
2018-03-01T06:06:44.889Z,11.10
2018-03-01T06:09:13.983Z,11.83
2018-03-01T06:11:42.757Z,9.80
2018-03-01T06:14:11.671Z,10.30
2018-03-01T06:16:41.806Z,11.27
2018-03-01T06:19:10.572Z,11.43
2018-03-01T06:21:39.564Z,12.47
2018-03-01T06:24:08.251Z,11.10
2018-03-01T06:26:37.115Z,10.77
2018-03-01T06:29:05.984Z,12.60
2018-03-01T06:31:34.922Z,10.37
2018-03-01T06:34:03.712Z,10.90
2018-03-01T06:36:33.380Z,12.17
2018-03-01T06:39:02.118Z,13.17
2018-03-01T06:41:31.001Z,13.83
2018-03-01T06:43:59.690Z,11.13
2018-03-01T06:46:28.578Z,13.00
2018-03-01T06:48:57.673Z,14.60
2018-03-01T06:51:26.369Z,16.20
2018-03-01T06:53:55.149Z,12.67
2018-03-01T06:56:23.941Z,16.60
2018-03-01T06:58:53.031Z,13.03
2018-03-01T07:01:21.829Z,12.87
2018-03-01T07:03:50.718Z,11.87
2018-03-01T07:06:19.703Z,15.20
2018-03-01T07:08:48.492Z,11.47
2018-03-01T07:11:17.405Z,10.57
2018-03-01T07:13:46.172Z,12.30
2018-03-01T07:16:15.882Z,12.57
2018-03-01T07:18:44.745Z,9.87
2018-03-01T07:21:13.514Z,11.40
2018-03-01T07:23:42.247Z,11.53
2018-03-01T07:26:11.081Z,8.83
2018-03-01T07:28:40.031Z,10.40
2018-03-01T07:31:09.956Z,8.10
2018-03-01T07:33:39.042Z,9.47
2018-03-01T07:36:07.735Z,7.60
2018-03-01T07:38:36.722Z,7.40
2018-03-01T07:41:05.509Z,7.50
2018-03-01T07:43:34.195Z,7.50
2018-03-01T07:46:02.826Z,8.37
2018-03-01T07:48:31.773Z,10.80
2018-03-01T07:51:13.157Z,9.67
2018-03-01T07:53:42.969Z,7.90
2018-03-01T07:56:11.664Z,9.10
2018-03-01T07:58:40.447Z,6.70
2018-03-01T08:01:10.360Z,7.33
2018-03-01T08:03:39.097Z,7.00
2018-03-01T08:06:07.934Z,4.97
2018-03-01T08:08:36.802Z,7.27
2018-03-01T08:11:05.615Z,7.10
2018-03-01T08:13:34.403Z,7.27
2018-03-01T08:16:03.192Z,6.17
2018-03-01T08:18:32.084Z,5.87
2018-03-01T08:21:00.978Z,6.47
2018-03-01T08:23:31.298Z,5.60
2018-03-01T08:26:00.193Z,6.13
2018-03-01T08:28:28.875Z,8.20
2018-03-01T08:30:57.663Z,7.63
2018-03-01T08:33:26.350Z,7.67
2018-03-01T08:35:55.861Z,8.40
2018-03-01T08:38:24.849Z,8.57
2018-03-01T08:40:53.648Z,7.83
2018-03-01T08:43:22.425Z,7.20
2018-03-01T08:45:51.318Z,7.73
2018-03-01T08:48:20.104Z,11.20
2018-03-01T08:50:48.792Z,8.97
2018-03-01T08:53:17.582Z,9.60
2018-03-01T08:55:46.265Z,8.15
2018-03-01T08:58:14.963Z,8.47
2018-03-01T09:00:43.845Z,9.87
2018-03-01T09:03:12.528Z,9.70
2018-03-01T09:05:41.217Z,8.00
2018-03-01T09:08:09.904Z,5.97
2018-03-01T09:10:38.694Z,8.00
2018-03-01T09:13:07.482Z,10.10
2018-03-01T09:15:36.374Z,9.57
2018-03-01T09:18:05.162Z,11.03
2018-03-01T09:20:34.048Z,11.20
2018-03-01T09:23:02.939Z,11.23
2018-03-01T09:25:31.624Z,11.60
2018-03-01T09:28:00.321Z,12.37
2018-03-01T09:30:29.312Z,12.73
2018-03-01T09:32:58.196Z,12.43
2018-03-01T09:35:27.088Z,13.50
2018-03-01T09:37:55.977Z,13.10
2018-03-01T09:40:24.663Z,11.73
2018-03-01T09:42:53.435Z,13.23
2018-03-01T09:45:22.138Z,15.80
2018-03-01T09:47:50.824Z,13.63
2018-03-01T09:50:19.707Z,14.23
2018-03-01T09:52:48.507Z,14.53
2018-03-01T09:55:17.295Z,14.90
2018-03-01T09:57:45.978Z,16.67
2018-03-01T10:00:14.721Z,13.30
2018-03-01T10:02:43.460Z,19.17
2018-03-01T10:05:12.241Z,17.90
2018-03-01T10:07:41.238Z,16.57
2018-03-01T10:10:10.027Z,16.20
2018-03-01T10:12:38.817Z,15.03
2018-03-01T10:15:07.605Z,17.07
2018-03-01T10:17:36.395Z,15.53
2018-03-01T10:20:05.081Z,15.70
2018-03-01T10:22:33.866Z,15.63
2018-03-01T10:25:02.663Z,15.30
2018-03-01T10:27:31.553Z,15.47
2018-03-01T10:30:00.340Z,15.73
2018-03-01T10:32:29.227Z,14.20
2018-03-01T10:34:58.123Z,14.60
2018-03-01T10:37:26.906Z,15.33
2018-03-01T10:39:55.591Z,14.07
2018-03-01T10:42:24.428Z,12.27
2018-03-01T10:44:53.297Z,15.77
2018-03-01T10:47:22.163Z,14.73
2018-03-01T10:49:50.847Z,14.10
2018-03-01T10:52:19.637Z,13.63
2018-03-01T10:54:48.323Z,14.87
2018-03-01T10:57:17.012Z,14.77
2018-03-01T10:59:45.902Z,13.40
2018-03-01T11:02:14.689Z,12.73
2018-03-01T11:04:43.376Z,10.40
2018-03-01T11:07:12.168Z,9.70
2018-03-01T11:09:41.053Z,12.20
2018-03-01T11:12:09.950Z,12.03
2018-03-01T11:14:38.781Z,14.60
2018-03-01T11:17:07.520Z,11.63
2018-03-01T11:19:36.207Z,11.40
2018-03-01T11:22:05.108Z,11.37
2018-03-01T11:24:33.936Z,10.30
2018-03-01T11:27:02.675Z,12.97
2018-03-01T11:29:31.670Z,12.23
2018-03-01T11:32:00.357Z,12.33
2018-03-01T11:34:29.142Z,12.60
2018-03-01T11:36:57.931Z,13.13
2018-03-01T11:39:26.718Z,10.60
2018-03-01T11:41:55.437Z,11.27
2018-03-01T11:44:24.192Z,11.23
2018-03-01T11:46:52.881Z,10.50
2018-03-01T11:49:21.668Z,10.97
2018-03-01T11:51:50.564Z,11.77
2018-03-01T11:54:19.249Z,10.03
2018-03-01T11:56:48.032Z,9.90
2018-03-01T11:59:16.923Z,10.50
2018-03-01T12:01:45.783Z,10.27
2018-03-01T12:04:14.501Z,8.57
2018-03-01T12:06:43.597Z,9.70
2018-03-01T12:09:12.384Z,9.80
2018-03-01T12:11:41.076Z,9.90
2018-03-01T12:14:09.861Z,11.63
2018-03-01T12:16:38.651Z,10.20
2018-03-01T12:19:07.441Z,11.20
2018-03-01T12:21:36.333Z,7.73
2018-03-01T12:24:05.015Z,10.37
2018-03-01T12:26:33.706Z,11.00
2018-03-01T12:29:02.490Z,9.60
2018-03-01T12:31:31.481Z,11.93
2018-03-01T12:34:00.382Z,12.63
2018-03-01T12:36:29.266Z,13.17
2018-03-01T12:38:58.057Z,11.07
2018-03-01T12:41:26.741Z,9.37
2018-03-01T12:43:55.535Z,9.40
2018-03-01T12:46:24.418Z,11.30
2018-03-01T12:48:53.316Z,11.33
2018-03-01T12:51:22.103Z,8.87
2018-03-01T12:53:50.784Z,9.83
2018-03-01T12:56:19.678Z,8.17
2018-03-01T12:58:48.565Z,8.60
2018-03-01T13:01:17.356Z,8.70
2018-03-01T13:03:46.143Z,9.27
2018-03-01T13:06:15.034Z,8.43
2018-03-01T13:08:44.442Z,9.27
2018-03-01T13:11:13.333Z,8.70
2018-03-01T13:13:42.322Z,7.53
2018-03-01T13:16:11.112Z,8.27
2018-03-01T13:18:40.103Z,6.83
2018-03-01T13:21:09.207Z,7.70
2018-03-01T13:23:38.913Z,8.80
2018-03-01T13:26:07.806Z,8.30
2018-03-01T13:28:37.539Z,4.83
2018-03-01T13:31:16.607Z,6.50
2018-03-01T13:36:48.791Z,6.77
2018-03-01T13:39:17.729Z,7.40
2018-03-01T13:41:48.263Z,6.60
2018-03-01T13:44:17.360Z,5.90
2018-03-01T13:46:46.855Z,7.37
2018-03-01T13:49:15.745Z,6.67
2018-03-01T13:51:45.348Z,6.93
2018-03-01T13:54:14.145Z,5.83
2018-03-01T13:56:43.236Z,6.47
2018-03-01T13:59:12.126Z,6.60
2018-03-01T14:01:40.967Z,6.20
2018-03-01T14:04:09.906Z,5.80
2018-03-01T14:06:40.620Z,4.83
2018-03-01T14:09:10.145Z,4.20
2018-03-01T14:11:39.038Z,4.27
2018-03-01T14:14:08.763Z,4.30
2018-03-01T14:16:37.546Z,5.40
2018-03-01T14:19:11.448Z,8.10
2018-03-01T14:24:43.746Z,5.33
2018-03-01T14:27:27.378Z,5.20
2018-03-01T14:30:00.156Z,6.03
2018-03-01T14:32:29.051Z,7.70
2018-03-01T14:34:57.836Z,8.33
2018-03-01T14:37:26.726Z,5.73
2018-03-01T14:39:55.977Z,7.20
2018-03-01T14:42:25.282Z,7.63
2018-03-01T14:44:54.197Z,10.30
2018-03-01T14:47:23.446Z,7.23
2018-03-01T14:49:52.756Z,5.63
2018-03-01T14:52:21.804Z,9.60
2018-03-01T14:54:50.805Z,10.30
2018-03-01T14:57:19.959Z,8.50
2018-03-01T14:59:50.010Z,7.23
2018-03-01T15:02:19.019Z,7.17
2018-03-01T15:04:47.958Z,6.33
2018-03-01T15:07:17.788Z,6.90
2018-03-01T15:09:46.504Z,6.60
2018-03-01T15:12:16.112Z,6.47
2018-03-01T15:14:45.283Z,7.37
2018-03-01T15:17:16.253Z,9.23
2018-03-01T15:19:45.355Z,7.67
2018-03-01T15:22:14.242Z,7.80
2018-03-01T15:24:44.124Z,8.23
2018-03-01T15:27:13.051Z,8.40
2018-03-01T15:29:41.737Z,8.50
2018-03-01T15:32:10.570Z,9.77
2018-03-01T15:34:39.319Z,10.57
2018-03-01T15:37:08.204Z,8.30
2018-03-01T15:39:36.987Z,8.00
2018-03-01T15:42:05.673Z,6.97
2018-03-01T15:44:34.360Z,9.43
2018-03-01T15:47:03.462Z,9.00
2018-03-01T15:49:32.141Z,7.73
2018-03-01T15:52:00.933Z,8.40
2018-03-01T15:54:29.616Z,9.77
2018-03-01T15:56:58.516Z,9.80
2018-03-01T15:59:27.396Z,9.87
2018-03-01T16:01:56.241Z,9.10
2018-03-01T16:04:25.926Z,7.97
2018-03-01T16:06:54.790Z,9.90
2018-03-01T16:09:23.545Z,9.60
2018-03-01T16:11:52.466Z,8.70
2018-03-01T16:14:21.154Z,9.47
2018-03-01T16:16:49.946Z,9.00
2018-03-01T16:19:18.733Z,11.17
2018-03-01T16:21:47.518Z,9.67
2018-03-01T16:24:16.434Z,9.37
2018-03-01T16:26:45.201Z,9.60
2018-03-01T16:29:14.810Z,9.50
2018-03-01T16:31:43.595Z,9.40
2018-03-01T16:34:12.489Z,8.50
2018-03-01T16:36:41.273Z,10.53
2018-03-01T16:39:10.176Z,9.17
2018-03-01T16:41:39.058Z,12.67
2018-03-01T16:44:07.943Z,8.57
2018-03-01T16:46:36.674Z,9.77
2018-03-01T16:49:05.529Z,9.23
2018-03-01T16:51:34.520Z,7.97
2018-03-01T16:54:03.879Z,8.90
2018-03-01T16:56:33.003Z,11.20
2018-03-01T16:59:02.089Z,9.33
2018-03-01T17:01:31.001Z,8.00
2018-03-01T17:04:00.302Z,9.55
2018-03-01T17:06:29.805Z,10.20
2018-03-01T17:08:58.907Z,9.27
2018-03-01T17:11:28.088Z,10.17
2018-03-01T17:13:57.225Z,9.13
2018-03-01T17:16:26.608Z,8.63
2018-03-01T17:18:55.502Z,9.20
2018-03-01T17:21:24.288Z,8.57
2018-03-01T17:23:53.072Z,8.70
2018-03-01T17:26:21.967Z,10.30
2018-03-01T17:28:50.849Z,9.17
2018-03-01T17:31:19.744Z,9.47
2018-03-01T17:33:48.784Z,9.20
2018-03-01T17:36:17.828Z,8.07
2018-03-01T17:38:46.761Z,9.50
2018-03-01T17:41:15.725Z,9.80
2018-03-01T17:43:44.607Z,9.53
2018-03-01T17:46:13.754Z,9.57
2018-03-01T17:48:42.826Z,9.80
2018-03-01T17:51:12.127Z,19.27
2018-03-01T17:53:41.625Z,11.90
2018-03-01T17:56:10.558Z,10.30
2018-03-01T17:58:40.305Z,8.43
2018-03-01T18:01:09.563Z,9.70
2018-03-01T18:03:38.497Z,8.40
2018-03-01T18:06:07.601Z,8.97
2018-03-01T18:08:36.617Z,8.80
2018-03-01T18:11:05.953Z,10.63
2018-03-01T18:13:35.162Z,9.50
2018-03-01T18:16:04.486Z,8.10
2018-03-01T18:18:34.009Z,9.77
2018-03-01T18:21:03.051Z,10.20
2018-03-01T18:23:33.039Z,5.93
2018-03-01T18:26:02.100Z,7.03
2018-03-01T18:28:30.886Z,9.50
2018-03-01T18:31:00.881Z,8.20
2018-03-01T18:33:30.016Z,8.93
2018-03-01T18:35:59.766Z,8.10
2018-03-01T18:38:29.690Z,7.03
2018-03-01T18:40:58.930Z,7.80
2018-03-01T18:43:28.833Z,8.90
2018-03-01T18:45:58.277Z,5.80
2018-03-01T18:48:28.330Z,7.30
2018-03-01T18:50:57.611Z,7.77
2018-03-01T18:53:26.559Z,9.63
2018-03-01T18:55:56.341Z,8.30
2018-03-01T18:58:25.470Z,9.60
2018-03-01T19:00:54.505Z,9.20
2018-03-01T19:03:23.881Z,8.17
2018-03-01T19:05:52.946Z,6.83
2018-03-01T19:08:21.806Z,7.90
2018-03-01T19:10:50.946Z,10.73
2018-03-01T19:13:19.835Z,8.80
2018-03-01T19:15:49.752Z,6.33
2018-03-01T19:18:18.825Z,6.43
2018-03-01T19:20:47.737Z,6.77
2018-03-01T19:23:17.446Z,6.37
2018-03-01T19:25:47.154Z,5.47
2018-03-01T19:28:15.840Z,7.17
2018-03-01T19:30:44.529Z,5.97
2018-03-01T19:33:13.318Z,5.97
2018-03-01T19:35:42.003Z,5.50
2018-03-01T19:38:10.896Z,5.63
2018-03-01T19:40:39.788Z,8.50
2018-03-01T19:43:08.681Z,6.30
2018-03-01T19:45:37.567Z,6.03
2018-03-01T19:48:06.456Z,6.93
2018-03-01T19:50:35.144Z,5.50
2018-03-01T19:53:03.831Z,6.03
2018-03-01T19:55:32.720Z,6.10
2018-03-01T19:58:01.610Z,6.90
2018-03-01T20:00:30.501Z,5.70
2018-03-01T20:02:59.391Z,6.47
2018-03-01T20:05:28.286Z,6.83
2018-03-01T20:07:56.971Z,5.50
2018-03-01T20:10:25.660Z,8.20
2018-03-01T20:12:54.552Z,9.50
2018-03-01T20:15:23.439Z,7.20
2018-03-01T20:17:52.328Z,5.93
2018-03-01T20:20:21.217Z,6.90
2018-03-01T20:22:50.113Z,5.63
2018-03-01T20:25:18.901Z,6.80
2018-03-01T20:27:47.908Z,5.40
2018-03-01T20:30:16.784Z,8.67
2018-03-01T20:32:46.085Z,7.10
2018-03-01T20:35:14.975Z,5.83
2018-03-01T20:37:43.868Z,7.40
2018-03-01T20:40:12.758Z,8.20
2018-03-01T20:42:41.465Z,6.00
2018-03-01T20:45:10.378Z,5.80
2018-03-01T20:47:39.126Z,6.40
2018-03-01T20:50:08.016Z,6.23
2018-03-01T20:52:36.906Z,6.62
2018-03-01T20:55:05.594Z,4.97
2018-03-01T20:57:34.554Z,6.50
2018-03-01T21:00:03.374Z,5.73
2018-03-01T21:02:32.321Z,5.07
2018-03-01T21:05:01.984Z,7.37
2018-03-01T21:07:30.867Z,8.27
2018-03-01T21:09:59.915Z,6.60
2018-03-01T21:12:29.067Z,6.00
2018-03-01T21:14:57.981Z,6.90
2018-03-01T21:17:26.738Z,6.50
2018-03-01T21:19:55.865Z,8.37
2018-03-01T21:22:25.234Z,6.20
2018-03-01T21:24:54.101Z,5.40
2018-03-01T21:27:23.231Z,7.23
2018-03-01T21:29:52.322Z,6.47
2018-03-01T21:32:21.258Z,8.13
2018-03-01T21:34:51.669Z,8.50
2018-03-01T21:37:20.817Z,7.20
2018-03-01T21:39:50.040Z,7.93
2018-03-01T21:42:19.352Z,6.70
2018-03-01T21:44:48.285Z,6.70
2018-03-01T21:47:17.735Z,6.70
2018-03-01T21:49:47.048Z,7.73
2018-03-01T21:52:16.142Z,5.80
2018-03-01T21:54:46.345Z,5.53
2018-03-01T21:57:15.339Z,6.50
2018-03-01T21:59:44.351Z,7.30
2018-03-01T22:02:13.385Z,5.30
2018-03-01T22:04:42.574Z,6.37
2018-03-01T22:07:11.528Z,8.47
2018-03-01T22:09:40.615Z,5.90
2018-03-01T22:12:09.242Z,6.10
2018-03-01T22:14:38.305Z,6.63
2018-03-01T22:17:08.006Z,6.60
2018-03-01T22:19:37.251Z,6.10
2018-03-01T22:22:06.067Z,6.50
2018-03-01T22:24:35.905Z,5.23
2018-03-01T22:27:04.593Z,6.33
2018-03-01T22:29:33.480Z,6.03
2018-03-01T22:32:02.439Z,6.47
2018-03-01T22:34:31.271Z,7.20
2018-03-01T22:37:00.163Z,4.97
2018-03-01T22:39:29.046Z,6.50
2018-03-01T22:41:57.935Z,5.60
2018-03-01T22:44:27.441Z,5.60
2018-03-01T22:46:56.337Z,4.93
2018-03-01T22:49:25.227Z,4.80
2018-03-01T22:51:55.109Z,5.17
2018-03-01T22:54:24.031Z,4.20
2018-03-01T22:56:53.275Z,5.20
2018-03-01T22:59:23.043Z,5.57
2018-03-01T23:01:53.569Z,7.07
2018-03-01T23:04:23.282Z,4.97
2018-03-01T23:06:51.968Z,6.37
2018-03-01T23:09:20.794Z,4.93
2018-03-01T23:11:49.748Z,7.80
2018-03-01T23:14:18.477Z,7.47
2018-03-01T23:16:47.436Z,5.50
2018-03-01T23:22:15.226Z,5.40
2018-03-01T23:24:44.104Z,5.20
2018-03-01T23:27:12.904Z,5.90
2018-03-01T23:29:41.786Z,4.10
2018-03-01T23:32:10.470Z,5.03
2018-03-01T23:34:39.369Z,4.93
2018-03-01T23:37:09.082Z,4.80
2018-03-01T23:39:37.969Z,4.63
2018-03-01T23:42:06.853Z,5.80
2018-03-01T23:44:36.460Z,4.87
2018-03-01T23:47:06.070Z,4.10
2018-03-01T23:49:35.459Z,4.53
2018-03-01T23:52:04.158Z,2.97
2018-03-01T23:54:32.951Z,3.93
2018-03-01T23:57:01.737Z,3.40
2018-03-01T23:59:30.527Z,2.83
